Peach Orchard, Missouri
Current Conditions -  °F | °C
As of 6:53 AM on Sunday 21 Dec 2014 (Local Time) from KPOF Reporting Station
Overcast Overcast  
Wind Chill: 37°   Ceiling: 3000
Heat Index: 37°   Visibility: 9mi
Dew Point: 29°   Wind: 3mph
Humidity: 73%   Direction: 70°ENE
Pressure: 30.23"   Gusts: NA
Location:  36.4472°N, 89.9037°W
Report Text: KPOF 211253Z AUTO 07003KT 9SM OVC030 03/M02 A3023 RMK AO2 SLP241 T00281017
Loading
Personal Weather Stations






























Interactive Weather Map New forecast layout! Learn more

10-Day Weather Forecast

Advertisements
Track Severe Weather on mobile